sensor_id;sensor_type;location;lat;lon;timestamp;temperature;humidity
1680;DHT22;838;51.794;12.258;2023-06-10T00:01:29;19.50;2.70
1680;DHT22;838;51.794;12.258;2023-06-10T00:03:55;19.50;2.80
1680;DHT22;838;51.794;12.258;2023-06-10T00:06:21;19.60;2.80
1680;DHT22;838;51.794;12.258;2023-06-10T00:08:52;19.50;3.40
1680;DHT22;838;51.794;12.258;2023-06-10T00:11:19;19.40;4.50
1680;DHT22;838;51.794;12.258;2023-06-10T00:13:45;19.30;4.90
1680;DHT22;838;51.794;12.258;2023-06-10T00:16:11;19.30;5.70
1680;DHT22;838;51.794;12.258;2023-06-10T00:18:37;19.20;6.90
1680;DHT22;838;51.794;12.258;2023-06-10T00:21:04;19.20;7.40
1680;DHT22;838;51.794;12.258;2023-06-10T00:23:33;19.20;7.20
1680;DHT22;838;51.794;12.258;2023-06-10T00:26:03;19.40;5.80
1680;DHT22;838;51.794;12.258;2023-06-10T00:28:30;19.50;6.10
1680;DHT22;838;51.794;12.258;2023-06-10T00:30:56;19.50;5.90
1680;DHT22;838;51.794;12.258;2023-06-10T00:33:22;19.40;6.60
1680;DHT22;838;51.794;12.258;2023-06-10T00:35:48;19.40;6.60
1680;DHT22;838;51.794;12.258;2023-06-10T00:38:14;19.20;8.50
1680;DHT22;838;51.794;12.258;2023-06-10T00:40:40;19.20;9.30
1680;DHT22;838;51.794;12.258;2023-06-10T00:43:07;19.30;7.90
1680;DHT22;838;51.794;12.258;2023-06-10T00:45:33;19.10;9.20
1680;DHT22;838;51.794;12.258;2023-06-10T00:48:00;19.10;10.00
1680;DHT22;838;51.794;12.258;2023-06-10T00:50:26;19.10;10.00
1680;DHT22;838;51.794;12.258;2023-06-10T00:52:53;19.10;9.80
1680;DHT22;838;51.794;12.258;2023-06-10T00:55:19;19.20;9.30
1680;DHT22;838;51.794;12.258;2023-06-10T00:57:46;19.20;9.50
1680;DHT22;838;51.794;12.258;2023-06-10T01:00:14;19.20;9.50
1680;DHT22;838;51.794;12.258;2023-06-10T01:02:41;19.20;9.70
1680;DHT22;838;51.794;12.258;2023-06-10T01:05:08;19.30;9.20
1680;DHT22;838;51.794;12.258;2023-06-10T01:10:42;19.50;7.90
1680;DHT22;838;51.794;12.258;2023-06-10T01:13:11;19.30;8.50
1680;DHT22;838;51.794;12.258;2023-06-10T01:15:40;19.30;7.90
1680;DHT22;838;51.794;12.258;2023-06-10T01:18:08;19.30;8.10
1680;DHT22;838;51.794;12.258;2023-06-10T01:20:41;19.00;10.30
1680;DHT22;838;51.794;12.258;2023-06-10T01:23:09;19.10;11.30
1680;DHT22;838;51.794;12.258;2023-06-10T01:25:39;19.20;10.90
1680;DHT22;838;51.794;12.258;2023-06-10T01:28:20;19.50;9.00
1680;DHT22;838;51.794;12.258;2023-06-10T01:33:26;19.10;10.50
1680;DHT22;838;51.794;12.258;2023-06-10T01:35:53;18.80;13.30
1680;DHT22;838;51.794;12.258;2023-06-10T01:38:21;18.90;13.00
1680;DHT22;838;51.794;12.258;2023-06-10T01:40:48;18.90;14.90
1680;DHT22;838;51.794;12.258;2023-06-10T01:43:15;18.80;14.90
1680;DHT22;838;51.794;12.258;2023-06-10T01:45:41;18.60;16.30
1680;DHT22;838;51.794;12.258;2023-06-10T01:48:06;18.50;16.60
1680;DHT22;838;51.794;12.258;2023-06-10T01:50:32;18.30;17.60
1680;DHT22;838;51.794;12.258;2023-06-10T01:53:00;18.30;18.30
1680;DHT22;838;51.794;12.258;2023-06-10T01:55:26;18.30;18.50
1680;DHT22;838;51.794;12.258;2023-06-10T01:57:51;18.00;21.20
1680;DHT22;838;51.794;12.258;2023-06-10T02:00:17;17.80;24.50
1680;DHT22;838;51.794;12.258;2023-06-10T02:02:43;17.70;27.30
1680;DHT22;838;51.794;12.258;2023-06-10T02:05:08;17.50;30.00
1680;DHT22;838;51.794;12.258;2023-06-10T02:07:34;17.40;31.60
1680;DHT22;838;51.794;12.258;2023-06-10T02:10:00;17.20;36.90
1680;DHT22;838;51.794;12.258;2023-06-10T02:12:25;17.30;37.10
1680;DHT22;838;51.794;12.258;2023-06-10T02:14:52;17.40;35.90
1680;DHT22;838;51.794;12.258;2023-06-10T02:17:18;17.30;37.10
1680;DHT22;838;51.794;12.258;2023-06-10T02:19:44;17.20;39.80
1680;DHT22;838;51.794;12.258;2023-06-10T02:22:21;17.30;39.60
1680;DHT22;838;51.794;12.258;2023-06-10T02:24:47;17.00;41.50
1680;DHT22;838;51.794;12.258;2023-06-10T02:27:14;16.90;44.40
1680;DHT22;838;51.794;12.258;2023-06-10T02:29:40;16.70;46.80
1680;DHT22;838;51.794;12.258;2023-06-10T02:32:07;16.70;48.20
1680;DHT22;838;51.794;12.258;2023-06-10T02:34:33;16.70;48.90
1680;DHT22;838;51.794;12.258;2023-06-10T02:36:59;16.70;49.20
1680;DHT22;838;51.794;12.258;2023-06-10T02:39:24;16.60;49.70
1680;DHT22;838;51.794;12.258;2023-06-10T02:41:50;16.50;51.70
1680;DHT22;838;51.794;12.258;2023-06-10T02:44:18;16.50;51.90
1680;DHT22;838;51.794;12.258;2023-06-10T02:46:44;16.40;53.40
1680;DHT22;838;51.794;12.258;2023-06-10T02:49:10;16.50;53.10
1680;DHT22;838;51.794;12.258;2023-06-10T02:51:36;16.50;53.20
1680;DHT22;838;51.794;12.258;2023-06-10T02:54:02;16.50;53.00
1680;DHT22;838;51.794;12.258;2023-06-10T02:56:28;16.60;52.00
1680;DHT22;838;51.794;12.258;2023-06-10T02:58:54;16.40;53.80
1680;DHT22;838;51.794;12.258;2023-06-10T03:01:20;16.40;54.60
1680;DHT22;838;51.794;12.258;2023-06-10T03:03:45;16.30;54.90
1680;DHT22;838;51.794;12.258;2023-06-10T03:06:12;16.20;57.80
1680;DHT22;838;51.794;12.258;2023-06-10T03:08:38;16.20;58.20
1680;DHT22;838;51.794;12.258;2023-06-10T03:11:04;16.20;58.10
1680;DHT22;838;51.794;12.258;2023-06-10T03:13:31;16.30;57.50
1680;DHT22;838;51.794;12.258;2023-06-10T03:15:57;16.20;58.70
1680;DHT22;838;51.794;12.258;2023-06-10T03:18:26;16.10;59.20
1680;DHT22;838;51.794;12.258;2023-06-10T03:20:52;16.10;59.10
1680;DHT22;838;51.794;12.258;2023-06-10T03:23:18;16.20;58.50
1680;DHT22;838;51.794;12.258;2023-06-10T03:25:44;16.00;59.40
1680;DHT22;838;51.794;12.258;2023-06-10T03:28:11;16.10;60.40
1680;DHT22;838;51.794;12.258;2023-06-10T03:30:36;16.00;59.70
1680;DHT22;838;51.794;12.258;2023-06-10T03:33:02;16.00;61.50
1680;DHT22;838;51.794;12.258;2023-06-10T03:35:28;16.00;60.60
1680;DHT22;838;51.794;12.258;2023-06-10T03:37:54;15.90;61.50
1680;DHT22;838;51.794;12.258;2023-06-10T03:40:20;15.90;62.20
1680;DHT22;838;51.794;12.258;2023-06-10T03:42:46;15.90;62.60
1680;DHT22;838;51.794;12.258;2023-06-10T03:45:12;15.90;62.50
1680;DHT22;838;51.794;12.258;2023-06-10T03:47:38;15.80;63.30
1680;DHT22;838;51.794;12.258;2023-06-10T03:50:06;15.70;65.30
1680;DHT22;838;51.794;12.258;2023-06-10T03:52:34;15.60;66.20
1680;DHT22;838;51.794;12.258;2023-06-10T03:55:00;15.70;66.10
1680;DHT22;838;51.794;12.258;2023-06-10T03:57:26;15.70;66.80
1680;DHT22;838;51.794;12.258;2023-06-10T03:59:52;15.60;66.70
1680;DHT22;838;51.794;12.258;2023-06-10T04:02:18;15.60;68.00
1680;DHT22;838;51.794;12.258;2023-06-10T04:04:43;15.50;68.20
1680;DHT22;838;51.794;12.258;2023-06-10T04:07:09;15.50;69.50
1680;DHT22;838;51.794;12.258;2023-06-10T04:09:36;15.60;69.40
1680;DHT22;838;51.794;12.258;2023-06-10T04:12:02;15.70;67.50
1680;DHT22;838;51.794;12.258;2023-06-10T04:14:31;15.80;66.90
1680;DHT22;838;51.794;12.258;2023-06-10T04:16:57;15.90;64.90
1680;DHT22;838;51.794;12.258;2023-06-10T04:19:23;16.00;62.80
1680;DHT22;838;51.794;12.258;2023-06-10T04:21:48;16.10;62.20
1680;DHT22;838;51.794;12.258;2023-06-10T04:24:14;15.90;64.70
1680;DHT22;838;51.794;12.258;2023-06-10T04:26:40;15.70;66.00
1680;DHT22;838;51.794;12.258;2023-06-10T04:29:05;15.60;68.00
1680;DHT22;838;51.794;12.258;2023-06-10T04:31:31;15.70;68.20
1680;DHT22;838;51.794;12.258;2023-06-10T04:33:57;15.90;66.90
1680;DHT22;838;51.794;12.258;2023-06-10T04:36:23;15.90;67.20
1680;DHT22;838;51.794;12.258;2023-06-10T04:38:49;16.10;62.60
1680;DHT22;838;51.794;12.258;2023-06-10T04:41:17;16.00;64.30
1680;DHT22;838;51.794;12.258;2023-06-10T04:43:43;15.90;64.90
1680;DHT22;838;51.794;12.258;2023-06-10T04:46:09;16.00;64.30
1680;DHT22;838;51.794;12.258;2023-06-10T04:48:35;15.90;65.80
1680;DHT22;838;51.794;12.258;2023-06-10T04:51:01;15.90;66.30
1680;DHT22;838;51.794;12.258;2023-06-10T04:53:27;15.90;67.00
1680;DHT22;838;51.794;12.258;2023-06-10T04:55:54;15.90;65.30
1680;DHT22;838;51.794;12.258;2023-06-10T04:58:19;15.80;66.60
1680;DHT22;838;51.794;12.258;2023-06-10T05:00:45;16.00;66.00
1680;DHT22;838;51.794;12.258;2023-06-10T05:03:11;16.10;64.30
1680;DHT22;838;51.794;12.258;2023-06-10T05:05:36;16.20;62.80
1680;DHT22;838;51.794;12.258;2023-06-10T05:08:02;16.20;63.60
1680;DHT22;838;51.794;12.258;2023-06-10T05:10:28;16.20;63.20
1680;DHT22;838;51.794;12.258;2023-06-10T05:12:57;16.40;61.90
1680;DHT22;838;51.794;12.258;2023-06-10T05:15:24;16.40;62.00
1680;DHT22;838;51.794;12.258;2023-06-10T05:17:49;16.40;60.80
1680;DHT22;838;51.794;12.258;2023-06-10T05:20:15;16.50;60.00
1680;DHT22;838;51.794;12.258;2023-06-10T05:22:41;16.50;59.70
1680;DHT22;838;51.794;12.258;2023-06-10T05:25:07;16.90;58.80
1680;DHT22;838;51.794;12.258;2023-06-10T05:27:33;17.10;55.20
1680;DHT22;838;51.794;12.258;2023-06-10T05:29:59;17.10;55.40
1680;DHT22;838;51.794;12.258;2023-06-10T05:32:24;17.30;51.90
1680;DHT22;838;51.794;12.258;2023-06-10T05:34:50;17.40;52.80
1680;DHT22;838;51.794;12.258;2023-06-10T05:37:16;17.20;52.80
1680;DHT22;838;51.794;12.258;2023-06-10T05:39:41;17.30;54.60
1680;DHT22;838;51.794;12.258;2023-06-10T05:42:07;17.20;52.80
1680;DHT22;838;51.794;12.258;2023-06-10T05:44:34;17.30;53.40
1680;DHT22;838;51.794;12.258;2023-06-10T05:47:00;17.50;52.80
1680;DHT22;838;51.794;12.258;2023-06-10T05:49:35;17.70;51.60
1680;DHT22;838;51.794;12.258;2023-06-10T05:52:07;18.10;47.80
1680;DHT22;838;51.794;12.258;2023-06-10T05:54:33;18.20;46.00
1680;DHT22;838;51.794;12.258;2023-06-10T05:56:59;18.00;46.50
1680;DHT22;838;51.794;12.258;2023-06-10T05:59:27;18.10;47.60
1680;DHT22;838;51.794;12.258;2023-06-10T06:01:53;18.30;43.70
1680;DHT22;838;51.794;12.258;2023-06-10T06:04:18;18.50;42.40
1680;DHT22;838;51.794;12.258;2023-06-10T06:06:44;18.60;43.30
1680;DHT22;838;51.794;12.258;2023-06-10T06:09:10;18.70;42.60
1680;DHT22;838;51.794;12.258;2023-06-10T06:11:36;18.90;38.80
1680;DHT22;838;51.794;12.258;2023-06-10T06:14:01;19.00;37.20
1680;DHT22;838;51.794;12.258;2023-06-10T06:16:27;19.10;36.10
1680;DHT22;838;51.794;12.258;2023-06-10T06:18:53;19.20;35.10
1680;DHT22;838;51.794;12.258;2023-06-10T06:21:19;19.30;32.80
1680;DHT22;838;51.794;12.258;2023-06-10T06:23:44;19.30;34.60
1680;DHT22;838;51.794;12.258;2023-06-10T06:26:10;19.50;34.00
1680;DHT22;838;51.794;12.258;2023-06-10T06:28:36;19.90;29.90
1680;DHT22;838;51.794;12.258;2023-06-10T06:31:02;19.90;29.00
1680;DHT22;838;51.794;12.258;2023-06-10T06:33:28;20.30;26.80
1680;DHT22;838;51.794;12.258;2023-06-10T06:35:53;20.40;27.00
1680;DHT22;838;51.794;12.258;2023-06-10T06:38:19;20.30;25.60
1680;DHT22;838;51.794;12.258;2023-06-10T06:40:48;20.20;27.00
1680;DHT22;838;51.794;12.258;2023-06-10T06:43:14;20.00;26.70
1680;DHT22;838;51.794;12.258;2023-06-10T06:45:40;20.20;26.00
1680;DHT22;838;51.794;12.258;2023-06-10T06:48:05;20.20;26.20
1680;DHT22;838;51.794;12.258;2023-06-10T06:50:31;20.70;24.40
1680;DHT22;838;51.794;12.258;2023-06-10T06:52:57;21.00;20.90
1680;DHT22;838;51.794;12.258;2023-06-10T06:55:23;21.10;20.00
1680;DHT22;838;51.794;12.258;2023-06-10T06:57:49;20.50;22.70
1680;DHT22;838;51.794;12.258;2023-06-10T07:00:15;20.60;22.10
1680;DHT22;838;51.794;12.258;2023-06-10T07:02:41;20.90;21.20
1680;DHT22;838;51.794;12.258;2023-06-10T07:05:07;20.70;22.90
1680;DHT22;838;51.794;12.258;2023-06-10T07:07:45;21.00;21.00
1680;DHT22;838;51.794;12.258;2023-06-10T07:10:13;21.50;17.20
1680;DHT22;838;51.794;12.258;2023-06-10T07:12:40;21.60;15.50
1680;DHT22;838;51.794;12.258;2023-06-10T07:15:10;21.70;16.20
1680;DHT22;838;51.794;12.258;2023-06-10T07:20:11;21.40;17.20
1680;DHT22;838;51.794;12.258;2023-06-10T07:22:41;21.30;17.80
1680;DHT22;838;51.794;12.258;2023-06-10T07:25:10;21.10;18.10
1680;DHT22;838;51.794;12.258;2023-06-10T07:27:36;21.10;18.30
1680;DHT22;838;51.794;12.258;2023-06-10T07:30:07;21.40;17.40
1680;DHT22;838;51.794;12.258;2023-06-10T07:32:37;21.60;14.90
1680;DHT22;838;51.794;12.258;2023-06-10T07:35:13;21.50;16.30
1680;DHT22;838;51.794;12.258;2023-06-10T07:37:39;21.50;17.00
1680;DHT22;838;51.794;12.258;2023-06-10T07:40:05;21.80;16.20
1680;DHT22;838;51.794;12.258;2023-06-10T07:42:37;21.90;13.40
1680;DHT22;838;51.794;12.258;2023-06-10T07:45:04;21.90;15.50
1680;DHT22;838;51.794;12.258;2023-06-10T07:47:33;21.90;14.30
1680;DHT22;838;51.794;12.258;2023-06-10T07:50:00;21.90;13.90
1680;DHT22;838;51.794;12.258;2023-06-10T07:52:26;22.00;13.90
1680;DHT22;838;51.794;12.258;2023-06-10T07:54:52;22.00;14.20
1680;DHT22;838;51.794;12.258;2023-06-10T07:57:20;22.20;12.80
1680;DHT22;838;51.794;12.258;2023-06-10T07:59:49;22.50;13.50
1680;DHT22;838;51.794;12.258;2023-06-10T08:02:14;23.20;10.00
1680;DHT22;838;51.794;12.258;2023-06-10T08:04:40;23.90;5.40
1680;DHT22;838;51.794;12.258;2023-06-10T08:07:06;24.70;1.00
1680;DHT22;838;51.794;12.258;2023-06-10T08:09:32;24.90;1.00
1680;DHT22;838;51.794;12.258;2023-06-10T08:12:01;24.70;1.00
1680;DHT22;838;51.794;12.258;2023-06-10T08:14:27;24.60;1.00
1680;DHT22;838;51.794;12.258;2023-06-10T08:16:52;24.30;1.00
1680;DHT22;838;51.794;12.258;2023-06-10T08:19:18;24.30;1.00
1680;DHT22;838;51.794;12.258;2023-06-10T08:21:49;24.50;1.00
1680;DHT22;838;51.794;12.258;2023-06-10T08:24:15;24.50;1.00
1680;DHT22;838;51.794;12.258;2023-06-10T08:26:43;24.50;1.00
1680;DHT22;838;51.794;12.258;2023-06-10T08:29:12;24.30;1.00
1680;DHT22;838;51.794;12.258;2023-06-10T08:31:41;24.60;1.00
1680;DHT22;838;51.794;12.258;2023-06-10T08:34:11;25.00;1.00
1680;DHT22;838;51.794;12.258;2023-06-10T08:36:46;25.30;1.00
1680;DHT22;838;51.794;12.258;2023-06-10T08:39:19;25.60;1.00
1680;DHT22;838;51.794;12.258;2023-06-10T08:44:31;25.70;1.00
1680;DHT22;838;51.794;12.258;2023-06-10T08:46:59;25.70;1.00
1680;DHT22;838;51.794;12.258;2023-06-10T08:49:30;25.30;1.00
1680;DHT22;838;51.794;12.258;2023-06-10T08:52:00;25.30;1.00
1680;DHT22;838;51.794;12.258;2023-06-10T08:54:31;25.70;1.00
1680;DHT22;838;51.794;12.258;2023-06-10T08:56:59;25.70;1.00
1680;DHT22;838;51.794;12.258;2023-06-10T08:59:25;25.60;1.00
1680;DHT22;838;51.794;12.258;2023-06-10T09:01:52;25.10;1.00
1680;DHT22;838;51.794;12.258;2023-06-10T09:04:19;25.40;1.00
1680;DHT22;838;51.794;12.258;2023-06-10T09:06:55;25.60;1.00
1680;DHT22;838;51.794;12.258;2023-06-10T09:09:23;25.60;1.00
1680;DHT22;838;51.794;12.258;2023-06-10T09:11:49;25.80;1.00
1680;DHT22;838;51.794;12.258;2023-06-10T09:14:14;26.20;1.00
1680;DHT22;838;51.794;12.258;2023-06-10T09:16:42;27.30;1.00
1680;DHT22;838;51.794;12.258;2023-06-10T09:19:11;29.20;1.00
1680;DHT22;838;51.794;12.258;2023-06-10T09:21:54;31.00;1.00
1680;DHT22;838;51.794;12.258;2023-06-10T09:24:41;31.00;1.00
1680;DHT22;838;51.794;12.258;2023-06-10T09:27:16;30.60;1.00
1680;DHT22;838;51.794;12.258;2023-06-10T09:30:01;30.80;1.00
1680;DHT22;838;51.794;12.258;2023-06-10T09:36:22;32.60;1.00
1680;DHT22;838;51.794;12.258;2023-06-10T09:39:30;34.70;1.00
1680;DHT22;838;51.794;12.258;2023-06-10T09:48:41;38.70;1.00
1680;DHT22;838;51.794;12.258;2023-06-10T09:51:26;39.40;1.00
1680;DHT22;838;51.794;12.258;2023-06-10T09:57:06;39.70;1.00
1680;DHT22;838;51.794;12.258;2023-06-10T10:09:58;35.80;1.00
1680;DHT22;838;51.794;12.258;2023-06-10T10:16:14;31.50;1.00
1680;DHT22;838;51.794;12.258;2023-06-10T10:18:45;30.60;1.00
1680;DHT22;838;51.794;12.258;2023-06-10T10:21:16;29.40;1.00
1680;DHT22;838;51.794;12.258;2023-06-10T10:26:56;28.70;1.00
1680;DHT22;838;51.794;12.258;2023-06-10T10:36:29;29.20;1.00
1680;DHT22;838;51.794;12.258;2023-06-10T10:39:14;29.40;1.00
1680;DHT22;838;51.794;12.258;2023-06-10T10:41:59;29.30;1.00
1680;DHT22;838;51.794;12.258;2023-06-10T10:45:00;29.30;1.00
1680;DHT22;838;51.794;12.258;2023-06-10T10:47:44;29.40;1.00
1680;DHT22;838;51.794;12.258;2023-06-10T10:50:20;29.40;1.00
1680;DHT22;838;51.794;12.258;2023-06-10T10:53:41;29.50;1.00
1680;DHT22;838;51.794;12.258;2023-06-10T10:56:19;29.40;1.00
1680;DHT22;838;51.794;12.258;2023-06-10T10:59:14;29.70;1.00
1680;DHT22;838;51.794;12.258;2023-06-10T11:01:45;29.70;1.00
1680;DHT22;838;51.794;12.258;2023-06-10T11:08:04;29.60;1.00
1680;DHT22;838;51.794;12.258;2023-06-10T11:10:40;29.90;1.00
1680;DHT22;838;51.794;12.258;2023-06-10T11:13:27;29.60;1.00
1680;DHT22;838;51.794;12.258;2023-06-10T11:16:00;29.70;1.00
1680;DHT22;838;51.794;12.258;2023-06-10T11:18:59;29.50;1.00
1680;DHT22;838;51.794;12.258;2023-06-10T11:22:08;29.80;1.00
1680;DHT22;838;51.794;12.258;2023-06-10T11:24:41;29.90;1.00
1680;DHT22;838;51.794;12.258;2023-06-10T11:38:47;31.10;1.00
1680;DHT22;838;51.794;12.258;2023-06-10T11:41:41;31.30;1.00
1680;DHT22;838;51.794;12.258;2023-06-10T11:44:25;31.20;1.00
1680;DHT22;838;51.794;12.258;2023-06-10T11:47:39;31.30;1.00
1680;DHT22;838;51.794;12.258;2023-06-10T12:00:25;31.50;1.00
1680;DHT22;838;51.794;12.258;2023-06-10T12:03:04;31.90;1.00
1680;DHT22;838;51.794;12.258;2023-06-10T12:20:36;30.60;1.00
1680;DHT22;838;51.794;12.258;2023-06-10T12:27:04;31.20;1.00
1680;DHT22;838;51.794;12.258;2023-06-10T12:30:25;30.70;1.00
1680;DHT22;838;51.794;12.258;2023-06-10T12:36:35;31.30;1.00
1680;DHT22;838;51.794;12.258;2023-06-10T12:39:05;31.10;1.00
1680;DHT22;838;51.794;12.258;2023-06-10T12:41:31;29.90;1.00
1680;DHT22;838;51.794;12.258;2023-06-10T12:43:57;29.10;1.00
1680;DHT22;838;51.794;12.258;2023-06-10T12:46:23;28.70;1.00
1680;DHT22;838;51.794;12.258;2023-06-10T12:48:50;28.70;1.00
1680;DHT22;838;51.794;12.258;2023-06-10T12:51:20;28.70;1.00
1680;DHT22;838;51.794;12.258;2023-06-10T12:53:46;28.80;1.00
1680;DHT22;838;51.794;12.258;2023-06-10T12:56:12;29.20;1.00
1680;DHT22;838;51.794;12.258;2023-06-10T12:58:37;29.40;1.00
1680;DHT22;838;51.794;12.258;2023-06-10T13:01:03;29.60;1.00
1680;DHT22;838;51.794;12.258;2023-06-10T13:03:29;29.10;1.00
1680;DHT22;838;51.794;12.258;2023-06-10T13:05:55;28.70;1.00
1680;DHT22;838;51.794;12.258;2023-06-10T13:08:21;28.70;1.00
1680;DHT22;838;51.794;12.258;2023-06-10T13:10:54;28.40;1.00
1680;DHT22;838;51.794;12.258;2023-06-10T13:13:22;28.00;1.00
1680;DHT22;838;51.794;12.258;2023-06-10T13:15:48;27.70;1.00
1680;DHT22;838;51.794;12.258;2023-06-10T13:18:15;26.90;1.00
1680;DHT22;838;51.794;12.258;2023-06-10T13:20:44;26.30;1.00
1680;DHT22;838;51.794;12.258;2023-06-10T13:23:10;25.90;1.00
1680;DHT22;838;51.794;12.258;2023-06-10T13:25:38;25.70;1.00
1680;DHT22;838;51.794;12.258;2023-06-10T13:28:06;25.50;1.00
1680;DHT22;838;51.794;12.258;2023-06-10T13:30:32;25.20;1.00
1680;DHT22;838;51.794;12.258;2023-06-10T13:32:57;24.90;1.00
1680;DHT22;838;51.794;12.258;2023-06-10T13:35:23;24.90;1.00
1680;DHT22;838;51.794;12.258;2023-06-10T13:37:49;25.20;1.00
1680;DHT22;838;51.794;12.258;2023-06-10T13:40:15;25.60;1.00
1680;DHT22;838;51.794;12.258;2023-06-10T13:42:41;25.80;1.00
1680;DHT22;838;51.794;12.258;2023-06-10T13:45:07;26.10;1.00
1680;DHT22;838;51.794;12.258;2023-06-10T13:47:33;26.30;1.00
1680;DHT22;838;51.794;12.258;2023-06-10T13:49:58;26.60;1.00
1680;DHT22;838;51.794;12.258;2023-06-10T13:52:24;27.00;1.00
1680;DHT22;838;51.794;12.258;2023-06-10T13:54:50;27.40;1.00
1680;DHT22;838;51.794;12.258;2023-06-10T13:57:16;27.50;1.00
1680;DHT22;838;51.794;12.258;2023-06-10T13:59:41;27.90;1.00
1680;DHT22;838;51.794;12.258;2023-06-10T14:02:07;28.00;1.00
1680;DHT22;838;51.794;12.258;2023-06-10T14:04:33;28.20;1.00
1680;DHT22;838;51.794;12.258;2023-06-10T14:06:58;28.20;1.00
1680;DHT22;838;51.794;12.258;2023-06-10T14:09:24;28.00;1.00
1680;DHT22;838;51.794;12.258;2023-06-10T14:11:50;27.80;1.00
1680;DHT22;838;51.794;12.258;2023-06-10T14:14:15;27.90;1.00
1680;DHT22;838;51.794;12.258;2023-06-10T14:16:41;27.90;1.00
1680;DHT22;838;51.794;12.258;2023-06-10T14:19:07;28.10;1.00
1680;DHT22;838;51.794;12.258;2023-06-10T14:21:32;28.50;1.00
1680;DHT22;838;51.794;12.258;2023-06-10T14:23:58;28.60;1.00
1680;DHT22;838;51.794;12.258;2023-06-10T14:26:24;28.70;1.00
1680;DHT22;838;51.794;12.258;2023-06-10T14:28:51;28.80;1.00
1680;DHT22;838;51.794;12.258;2023-06-10T14:31:17;28.50;1.00
1680;DHT22;838;51.794;12.258;2023-06-10T14:33:43;28.90;1.00
1680;DHT22;838;51.794;12.258;2023-06-10T14:36:09;28.80;1.00
1680;DHT22;838;51.794;12.258;2023-06-10T14:38:35;28.90;1.00
1680;DHT22;838;51.794;12.258;2023-06-10T14:41:01;28.80;1.00
1680;DHT22;838;51.794;12.258;2023-06-10T14:43:27;28.80;1.00
1680;DHT22;838;51.794;12.258;2023-06-10T14:45:53;28.90;1.00
1680;DHT22;838;51.794;12.258;2023-06-10T14:48:21;29.00;1.00
1680;DHT22;838;51.794;12.258;2023-06-10T14:50:47;28.80;1.00
1680;DHT22;838;51.794;12.258;2023-06-10T14:53:17;28.60;1.00
1680;DHT22;838;51.794;12.258;2023-06-10T14:55:42;28.50;1.00
1680;DHT22;838;51.794;12.258;2023-06-10T14:58:08;28.50;1.00
1680;DHT22;838;51.794;12.258;2023-06-10T15:00:34;28.50;1.00
1680;DHT22;838;51.794;12.258;2023-06-10T15:02:59;28.50;1.00
1680;DHT22;838;51.794;12.258;2023-06-10T15:05:25;28.70;1.00
1680;DHT22;838;51.794;12.258;2023-06-10T15:07:51;29.00;1.00
1680;DHT22;838;51.794;12.258;2023-06-10T15:10:17;29.20;1.00
1680;DHT22;838;51.794;12.258;2023-06-10T15:12:43;29.10;1.00
1680;DHT22;838;51.794;12.258;2023-06-10T15:15:09;29.20;1.00
1680;DHT22;838;51.794;12.258;2023-06-10T15:17:35;29.20;1.00
1680;DHT22;838;51.794;12.258;2023-06-10T15:20:01;29.30;1.00
1680;DHT22;838;51.794;12.258;2023-06-10T15:22:27;29.60;1.00
1680;DHT22;838;51.794;12.258;2023-06-10T15:24:52;29.80;1.00
1680;DHT22;838;51.794;12.258;2023-06-10T15:27:18;29.70;1.00
1680;DHT22;838;51.794;12.258;2023-06-10T15:29:44;29.60;1.00
1680;DHT22;838;51.794;12.258;2023-06-10T15:32:09;29.30;1.00
1680;DHT22;838;51.794;12.258;2023-06-10T15:34:35;29.50;1.00
1680;DHT22;838;51.794;12.258;2023-06-10T15:37:01;29.70;1.00
1680;DHT22;838;51.794;12.258;2023-06-10T15:39:27;29.70;1.00
1680;DHT22;838;51.794;12.258;2023-06-10T15:41:53;29.60;1.00
1680;DHT22;838;51.794;12.258;2023-06-10T15:44:18;29.40;1.00
1680;DHT22;838;51.794;12.258;2023-06-10T15:46:44;29.10;1.00
1680;DHT22;838;51.794;12.258;2023-06-10T15:49:10;28.80;1.00
1680;DHT22;838;51.794;12.258;2023-06-10T15:51:36;28.70;1.00
1680;DHT22;838;51.794;12.258;2023-06-10T15:54:02;28.70;1.00
1680;DHT22;838;51.794;12.258;2023-06-10T15:56:28;28.70;1.00
1680;DHT22;838;51.794;12.258;2023-06-10T15:58:53;28.50;1.00
1680;DHT22;838;51.794;12.258;2023-06-10T16:01:20;28.50;1.00
1680;DHT22;838;51.794;12.258;2023-06-10T16:03:46;28.40;1.00
1680;DHT22;838;51.794;12.258;2023-06-10T16:06:12;28.20;1.00
1680;DHT22;838;51.794;12.258;2023-06-10T16:08:38;28.20;1.00
1680;DHT22;838;51.794;12.258;2023-06-10T16:11:03;28.30;1.00
1680;DHT22;838;51.794;12.258;2023-06-10T16:13:29;28.10;1.00
1680;DHT22;838;51.794;12.258;2023-06-10T16:15:55;27.90;1.00
1680;DHT22;838;51.794;12.258;2023-06-10T16:18:21;27.70;1.00
1680;DHT22;838;51.794;12.258;2023-06-10T16:20:47;27.20;1.00
1680;DHT22;838;51.794;12.258;2023-06-10T16:23:13;27.20;1.00
1680;DHT22;838;51.794;12.258;2023-06-10T16:25:39;27.00;1.00
1680;DHT22;838;51.794;12.258;2023-06-10T16:28:05;26.90;1.00
1680;DHT22;838;51.794;12.258;2023-06-10T16:30:31;26.80;1.00
1680;DHT22;838;51.794;12.258;2023-06-10T16:32:58;26.70;1.00
1680;DHT22;838;51.794;12.258;2023-06-10T16:35:24;26.60;1.00
1680;DHT22;838;51.794;12.258;2023-06-10T16:37:50;26.60;1.00
1680;DHT22;838;51.794;12.258;2023-06-10T16:40:16;26.80;1.00
1680;DHT22;838;51.794;12.258;2023-06-10T16:42:42;27.00;1.00
1680;DHT22;838;51.794;12.258;2023-06-10T16:45:08;27.40;1.00
1680;DHT22;838;51.794;12.258;2023-06-10T16:47:34;27.50;1.00
1680;DHT22;838;51.794;12.258;2023-06-10T16:50:00;27.60;1.00
1680;DHT22;838;51.794;12.258;2023-06-10T16:52:26;27.80;1.00
1680;DHT22;838;51.794;12.258;2023-06-10T16:54:52;27.90;1.00
1680;DHT22;838;51.794;12.258;2023-06-10T16:57:17;27.60;1.00
1680;DHT22;838;51.794;12.258;2023-06-10T16:59:43;27.40;1.00
1680;DHT22;838;51.794;12.258;2023-06-10T17:02:09;27.20;1.00
1680;DHT22;838;51.794;12.258;2023-06-10T17:04:35;27.10;1.00
1680;DHT22;838;51.794;12.258;2023-06-10T17:07:00;27.10;1.00
1680;DHT22;838;51.794;12.258;2023-06-10T17:09:26;27.30;1.00
1680;DHT22;838;51.794;12.258;2023-06-10T17:11:52;27.30;1.00
1680;DHT22;838;51.794;12.258;2023-06-10T17:14:18;27.10;1.00
1680;DHT22;838;51.794;12.258;2023-06-10T17:16:43;27.10;1.00
1680;DHT22;838;51.794;12.258;2023-06-10T17:19:10;27.10;1.00
1680;DHT22;838;51.794;12.258;2023-06-10T17:21:36;27.10;1.00
1680;DHT22;838;51.794;12.258;2023-06-10T17:24:02;27.40;1.00
1680;DHT22;838;51.794;12.258;2023-06-10T17:26:28;27.40;1.00
1680;DHT22;838;51.794;12.258;2023-06-10T17:28:54;27.60;1.00
1680;DHT22;838;51.794;12.258;2023-06-10T17:31:29;27.80;1.00
1680;DHT22;838;51.794;12.258;2023-06-10T17:33:55;28.00;1.00
1680;DHT22;838;51.794;12.258;2023-06-10T17:36:21;28.20;1.00
1680;DHT22;838;51.794;12.258;2023-06-10T17:38:46;28.50;1.00
1680;DHT22;838;51.794;12.258;2023-06-10T17:41:12;28.50;1.00
1680;DHT22;838;51.794;12.258;2023-06-10T17:43:38;28.00;1.00
1680;DHT22;838;51.794;12.258;2023-06-10T17:46:03;27.90;1.00
1680;DHT22;838;51.794;12.258;2023-06-10T17:48:30;28.00;1.00
1680;DHT22;838;51.794;12.258;2023-06-10T17:50:56;28.20;1.00
1680;DHT22;838;51.794;12.258;2023-06-10T17:53:22;28.20;1.00
1680;DHT22;838;51.794;12.258;2023-06-10T17:55:48;28.30;1.00